Ana Sayfa
METAR-TAF:

METAR-TAF

Havaalanları :

Lincolnton-Lincoln County Regional Airport

Lincolnton, Kuzey Carolina, Amerika Birleşik Devletleri

Enlem: 35-28-59N, Boylam: 081-09-41W, yükseklik: 267 m

Güncel hava durumu gözlemi

Rapor saat 08:55 UTC de 16 dakika önce yapıldı.
Sakin rüzgar
Sıcaklık 8°C
Nem 100%
Basınç 1009 hPa
Görüş mesafesi: 6.4 km
300 ft yükseklikte çok bulutlu
Pus

METAR: KIPJ 250855Z AUTO 00000KT 4SM BR OVC003 08/08 A2981 RMK AO2 60015 T00770077

Saat: 04:11 (09:11 UTC)


TAF: eksik

4.000'den fazla havaalanı için hava durumu gözlemleri ve tahminleri (METAR ve TAF raporları).

Kullanılabilir istasyonlar harita üzerinde sarı ve kırmızı noktalarla gösterilir.

İstasyonun adını görmek için fareyi noktanın üzerinde gezdirin.

Sonrasında hava gözlem ve tahminlerini görmek için tıklayın.

Haritayı değiştirmek için: yaklaştırmak için siyah artı işaretli yeşil düğmeye ve uzaklaştırmak için de eksi işaretli düğmeye hızla tıklayın; bitişik haritalar için yeşil okları kullanın.


METAR-TAF: